M I D A S
Marine Information and Data Acquisition System
Tripno 1302 of the Zeeleeuw from 2007-07-30 08:39:05 to 2007-07-30 13:44:51
Back to CruiseResearch ActivitiesStationsMapUnderway DataData graphs

EquipmentUnitsComment
TimeDGPSUTC
LatitudeDGPSDM.mWGS84
LongitudeDGPSDM.mWGS84
HeadingGyrodeg 
SOGDGPSknotsSpeed over ground
COGDGPSdegCourse over ground
DepthEcho soundermeters200 kHz
Missing or incorrect values are displayed as -999
Navigation data collected by the RV Zeeleeuw from 2007-07-30 06:59:30 to 2007-07-30 13:56:19
Time Latitude Longitude Heading SOG COG Depth
2007-07-30 07:00:34 51°15.943 2°53.571 339.9 12 332 10.2
2007-07-30 07:01:34 51°16.116 2°53.409 338.2 12.1 329 10.8
2007-07-30 07:02:34 51°16.29 2°53.248 338.5 12.1 331 10.9
2007-07-30 07:03:34 51°16.464 2°53.089 338.3 12 331 10.7
2007-07-30 07:04:34 51°16.64 2°52.938 338.6 11.8 332 10.4
2007-07-30 07:05:35 51°16.818 2°52.784 337.9 11.6 331 8.6
2007-07-30 07:06:34 51°16.994 2°52.673 350.2 11.6 344 9.2
2007-07-30 07:07:35 51°17.182 2°52.59 350 11.6 344 9
2007-07-30 07:08:34 51°17.364 2°52.516 0.6 11.3 357 9.2
2007-07-30 07:09:34 51°17.552 2°52.526 7.5 11.2 3 9.4
2007-07-30 07:10:34 51°17.74 2°52.535 6.6 11.4 2 9.7
2007-07-30 07:11:34 51°17.926 2°52.554 12.6 11.2 9 10.2
2007-07-30 07:12:34 51°18.09 2°52.672 40.4 11.1 40 9.7
2007-07-30 07:13:34 51°18.223 2°52.881 57 11.4 58 9.9
2007-07-30 07:14:34 51°18.312 2°53.152 61.3 11.3 61 9.7
2007-07-30 07:15:35 51°18.398 2°53.43 65.8 11.5 64 10.5
2007-07-30 07:16:35 51°18.48 2°53.704 63.8 11.5 66 10.5
2007-07-30 07:17:34 51°18.563 2°53.968 64.2 11.3 68 10.4
2007-07-30 07:18:34 51°18.638 2°54.245 67.8 11.3 65 10.1
2007-07-30 07:19:34 51°18.706 2°54.528 68.6 11.4 72 10.2
2007-07-30 07:20:34 51°18.78 2°54.809 66.8 11.3 66 10
2007-07-30 07:21:34 51°18.853 2°55.089 66.6 11.5 67 10.5
2007-07-30 07:22:34 51°18.918 2°55.374 70.5 11.5 71 10.1
2007-07-30 07:23:34 51°18.985 2°55.659 69.9 11.5 68 10.1
2007-07-30 07:24:34 51°19.051 2°55.941 69.5 11.2 71 9.5
2007-07-30 07:25:35 51°19.117 2°56.224 69.6 11 70 9.8
2007-07-30 07:26:35 51°19.187 2°56.499 68.8 11.2 67 9.9
2007-07-30 07:27:35 51°19.254 2°56.775 68.8 10.9 69 9.4
2007-07-30 07:28:35 51°19.318 2°57.05 71.7 11 66 9.5
2007-07-30 07:29:34 51°19.379 2°57.323 71 11.2 72 9.3
2007-07-30 07:30:34 51°19.444 2°57.599 71.3 11 66 9.4
2007-07-30 07:31:34 51°19.512 2°57.872 70.4 11 67 9.3
2007-07-30 07:32:34 51°19.578 2°58.148 71.4 11.1 69 9
2007-07-30 07:33:34 51°19.644 2°58.421 69.3 11.1 67 9.2
2007-07-30 07:34:34 51°19.714 2°58.692 72.1 11 72 9
2007-07-30 07:35:35 51°19.769 2°58.977 76.3 11.2 76 8.7
2007-07-30 07:36:35 51°19.822 2°59.255 76 10.8 71 8.7
2007-07-30 07:37:35 51°19.88 2°59.531 73.1 10.8 73 8.6
2007-07-30 07:38:34 51°19.935 2°59.802 74.8 10.9 71 8.7
2007-07-30 07:39:34 51°19.992 3°0.077 74.2 11.2 74 8.8
2007-07-30 07:40:34 51°20.049 3°0.353 73.1 11.1 72 8.6
2007-07-30 07:41:34 51°20.109 3°0.631 73.3 11.1 67 8.3
2007-07-30 07:42:35 51°20.168 3°0.917 72.5 11 69 8.6
2007-07-30 07:43:34 51°20.228 3°1.192 70.8 11 71 8.5
2007-07-30 07:44:35 51°20.29 3°1.476 73.8 11 71 8.4
2007-07-30 07:45:34 51°20.349 3°1.75 72.2 11.1 72 8.6
2007-07-30 07:46:35 51°20.414 3°2.036 73.4 11.1 69 8
2007-07-30 07:47:35 51°20.474 3°2.32 71.5 11.3 68 8.6
2007-07-30 07:48:34 51°20.534 3°2.598 71.3 11.3 70 8.3
2007-07-30 07:49:34 51°20.594 3°2.88 71.1 11.1 69 8.6
2007-07-30 07:50:34 51°20.655 3°3.157 71.8 11 69 8.6
2007-07-30 07:51:35 51°20.718 3°3.44 70.8 11.2 70 8.8
2007-07-30 07:52:34 51°20.771 3°3.718 75.4 11.6 83 8.6
2007-07-30 07:53:35 51°20.816 3°4.012 77.9 11.2 82 8.7
2007-07-30 07:54:34 51°20.864 3°4.295 73.8 11.4 76 8.5
2007-07-30 07:55:35 51°20.908 3°4.59 76.8 11.4 81 8.3
2007-07-30 07:56:34 51°20.951 3°4.875 76.8 11.3 80 8.6
2007-07-30 07:57:34 51°20.996 3°5.167 76.2 11.1 73 8.6
2007-07-30 07:58:34 51°21.036 3°5.457 77.1 11.4 77 8.7
2007-07-30 07:59:34 51°21.079 3°5.748 78.2 11.2 78 8.8
2007-07-30 08:00:34 51°21.13 3°6.032 74.9 11.1 71 8.7
2007-07-30 08:01:34 51°21.182 3°6.319 75.2 11.3 72 8.7
2007-07-30 08:02:35 51°21.223 3°6.617 79.8 11.4 81 9
2007-07-30 08:03:34 51°21.249 3°6.911 81.4 11.3 81 8.7
2007-07-30 08:04:35 51°21.308 3°7.2 67.8 11.2 65 8.8
2007-07-30 08:05:34 51°21.378 3°7.471 75.4 11.3 79 8.7
2007-07-30 08:06:34 51°21.406 3°7.765 71.5 10.9 71 9.1
2007-07-30 08:07:35 51°21.485 3°8.038 66 11.3 67 9.4
2007-07-30 08:08:35 51°21.56 3°8.313 68.7 11.3 67 9.5
2007-07-30 08:09:35 51°21.637 3°8.59 68.1 11.4 64 9.9
2007-07-30 08:10:34 51°21.713 3°8.858 66.4 11.4 60 10.6
2007-07-30 08:11:35 51°21.801 3°9.134 64.4 11.6 63 11.4
2007-07-30 08:12:34 51°21.887 3°9.403 65.5 11.6 64 11.7
2007-07-30 08:13:34 51°21.975 3°9.678 65 11.7 62 12.2
2007-07-30 08:14:35 51°22.062 3°9.963 67.8 11.8 64 12.8
2007-07-30 08:15:35 51°22.143 3°10.249 66.8 11.9 64 14.3
2007-07-30 08:16:35 51°22.228 3°10.536 67.7 11.9 67 15.3
2007-07-30 08:17:35 51°22.317 3°10.829 66 12.4 67 16.6
2007-07-30 08:18:35 51°22.403 3°11.122 67.5 12 69 14.9
2007-07-30 08:19:34 51°22.492 3°11.409 68 12.2 64 15
2007-07-30 08:20:34 51°22.581 3°11.695 66.7 11.9 66 14.3
2007-07-30 08:21:34 51°22.665 3°11.975 69.1 11.8 63 13.5
2007-07-30 08:22:35 51°22.746 3°12.26 68.5 11.4 67 13
2007-07-30 08:23:34 51°22.827 3°12.534 68.6 11.8 64 12.5
2007-07-30 08:24:35 51°22.909 3°12.818 68.6 11.7 65 12
2007-07-30 08:25:35 51°22.992 3°13.097 67.4 11.7 63 10.9
2007-07-30 08:26:34 51°23.072 3°13.369 67.8 11.4 64 10.6
2007-07-30 08:27:34 51°23.151 3°13.646 67.7 11.6 67 10.2
2007-07-30 08:28:34 51°23.231 3°13.926 68.9 11.5 64 9.6
2007-07-30 08:29:35 51°23.373 3°14.135 38.4 11.6 32 9.5
2007-07-30 08:30:35 51°23.548 3°14.254 16.8 11.6 7 11.3
2007-07-30 08:31:35 51°23.745 3°14.25 8.9 12 358 9.8
2007-07-30 08:32:35 51°23.943 3°14.251 8.2 11.8 1 10.9
2007-07-30 08:33:34 51°24.138 3°14.265 8.2 12.3 2 13.1
2007-07-30 08:34:35 51°24.346 3°14.272 6.5 12.2 -999 15.1
2007-07-30 08:35:35 51°24.551 3°14.273 2.6 12.4 357 18.4
2007-07-30 08:36:35 51°24.758 3°14.265 3.8 12.3 -999 16.8
2007-07-30 08:37:34 51°24.957 3°14.222 345.2 12.1 339 14.8
2007-07-30 08:38:35 51°25.112 3°14.029 316.2 11.8 310 12.5
2007-07-30 08:39:35 51°25.228 3°13.779 306.2 11.8 297 11.7
2007-07-30 08:40:34 51°25.262 3°13.474 272.1 12.5 263 11.1
2007-07-30 08:41:35 51°25.236 3°13.139 271.3 12.5 264 11
2007-07-30 08:42:35 51°25.221 3°12.81 272.7 12.3 265 10.7
2007-07-30 08:43:35 51°25.202 3°12.482 271.3 12.4 265 10.3
2007-07-30 08:44:34 51°25.184 3°12.158 271.7 12.4 265 10.2
2007-07-30 08:45:35 51°25.16 3°11.822 268.6 12.5 264 10.1
2007-07-30 08:46:34 51°25.131 3°11.497 269.6 12.6 263 10
2007-07-30 08:47:34 51°25.097 3°11.168 267.9 12.5 261 9.7
2007-07-30 08:48:35 51°25.057 3°10.832 264.9 12.7 256 9.1
2007-07-30 08:49:35 51°25.001 3°10.508 260.7 12.7 253 8.8
2007-07-30 08:50:35 51°24.926 3°10.191 254.9 12.7 250 8.7
2007-07-30 08:51:34 51°24.859 3°9.876 259.5 12.6 255 9
2007-07-30 08:52:35 51°24.795 3°9.546 259.1 12.8 254 8.7
2007-07-30 08:53:34 51°24.741 3°9.223 262.9 12.8 254 9.4
2007-07-30 08:54:34 51°24.689 3°8.892 264.9 12.7 258 9.5
2007-07-30 08:55:35 51°24.657 3°8.553 270.7 12.7 264 9.9
2007-07-30 08:56:35 51°24.634 3°8.217 270.6 12.7 262 10.3
2007-07-30 08:57:35 51°24.638 3°7.888 285.9 12.3 280 10.8
2007-07-30 08:58:34 51°24.691 3°7.58 305 12.1 300 10.8
2007-07-30 08:59:35 51°24.823 3°7.346 323.4 11.7 314 10.5
2007-07-30 09:00:35 51°24.954 3°7.118 321.5 11.5 310 10
2007-07-30 09:01:35 51°25.089 3°6.911 332.2 11.3 323 10
2007-07-30 09:02:35 51°25.251 3°6.756 346.8 11.2 344 10
2007-07-30 09:03:35 51°25.429 3°6.776 21.1 11 16 10.4
2007-07-30 09:04:34 51°25.58 3°6.932 41.1 11.1 38 10.2
2007-07-30 09:05:34 51°25.72 3°7.13 42.2 11.2 44 10
2007-07-30 09:06:35 51°25.851 3°7.356 48.8 11.6 47 9.7
2007-07-30 09:07:35 51°25.978 3°7.575 47.7 10.9 44 8.7
2007-07-30 09:08:35 51°26.101 3°7.792 47.7 11.1 49 9.9
2007-07-30 09:09:35 51°26.227 3°8.005 47.5 11 46 9.8
2007-07-30 09:10:35 51°26.352 3°8.219 47.3 10.9 46 9.7
2007-07-30 09:11:35 51°26.479 3°8.429 44.3 11.2 43 11
2007-07-30 09:12:35 51°26.609 3°8.64 45.7 11.4 46 11.3
2007-07-30 09:13:35 51°26.739 3°8.861 46.1 11.3 49 11
2007-07-30 09:14:35 51°26.864 3°9.083 48.5 11 48 10.6
2007-07-30 09:15:35 51°26.988 3°9.306 47.5 11.1 49 10.6
2007-07-30 09:16:35 51°27.114 3°9.528 47.1 11.2 47 10.5
2007-07-30 09:17:35 51°27.24 3°9.755 47.8 11.5 49 11.4
2007-07-30 09:18:34 51°27.365 3°9.981 48.4 11.7 48 11.1
2007-07-30 09:19:35 51°27.495 3°10.215 47.4 11.6 45 11.1
2007-07-30 09:20:35 51°27.623 3°10.442 48.3 11.5 43 11.2
2007-07-30 09:21:35 51°27.743 3°10.685 52.4 11.7 56 11.1
2007-07-30 09:22:35 51°27.857 3°10.937 52.9 11.6 53 10.1
2007-07-30 09:23:35 51°27.969 3°11.188 52.7 11.6 55 10.2
2007-07-30 09:24:35 51°28.084 3°11.437 52.1 11.6 53 10.1
2007-07-30 09:25:34 51°28.195 3°11.687 53.8 11.8 55 10.1
2007-07-30 09:26:35 51°28.311 3°11.942 50.8 11.4 52 9.8
2007-07-30 09:27:35 51°28.435 3°12.18 49.3 11.6 49 10.1
2007-07-30 09:28:35 51°28.595 3°12.305 10.9 10.8 4 10.3
2007-07-30 09:29:35 51°28.764 3°12.222 336.3 11.2 327 10.3
2007-07-30 09:30:35 51°28.918 3°12.058 332.7 11.2 324 10.4
2007-07-30 09:31:35 51°29.053 3°11.849 323.6 11.5 314 11.5
2007-07-30 09:32:34 51°29.183 3°11.641 324.9 11.7 316 13
2007-07-30 09:33:35 51°29.311 3°11.406 321 11.4 309 13.6
2007-07-30 09:34:35 51°29.434 3°11.175 322.5 11.4 311 13.8
2007-07-30 09:35:35 51°29.561 3°10.942 322.6 11.8 312 14.4
2007-07-30 09:36:35 51°29.692 3°10.705 322.2 11.9 310 15.2
2007-07-30 09:37:35 51°29.822 3°10.469 322.8 11.8 311 16.1
2007-07-30 09:38:35 51°29.954 3°10.233 323.6 12 312 17.1
2007-07-30 09:39:35 51°30.084 3°10 322.9 11.7 312 17.4
2007-07-30 09:40:35 51°30.213 3°9.766 322.9 11.9 311 17.6
2007-07-30 09:41:34 51°30.34 3°9.532 322.5 12 312 18.4
2007-07-30 09:42:35 51°30.472 3°9.291 323.7 11.8 311 19.3
2007-07-30 09:43:35 51°30.6 3°9.051 322.7 11.8 310 20.3
2007-07-30 09:44:35 51°30.732 3°8.81 323.8 12 311 20.9
2007-07-30 09:45:35 51°30.864 3°8.566 323.5 12.2 311 22.2
2007-07-30 09:46:35 51°30.997 3°8.319 322.9 12.1 311 21.8
2007-07-30 09:47:35 51°31.125 3°8.072 322.9 12 310 24.6
2007-07-30 09:48:35 51°31.258 3°7.826 323.2 12.1 312 23.5
2007-07-30 09:49:35 51°31.388 3°7.578 323 11.9 309 22.6
2007-07-30 09:50:34 51°31.518 3°7.336 323.6 12.3 311 22.8
2007-07-30 09:51:35 51°31.653 3°7.086 323.8 12.2 311 23.3
2007-07-30 09:52:35 51°31.787 3°6.838 323.1 12.2 311 29.1
2007-07-30 09:53:35 51°31.918 3°6.595 323.2 12.3 311 29.5
2007-07-30 09:54:35 51°32.055 3°6.345 322.5 12.3 310 30.9
2007-07-30 09:55:35 51°32.192 3°6.097 323.4 12.3 312 30.1
2007-07-30 09:56:35 51°32.334 3°5.856 323.8 12.3 314 30.4
2007-07-30 09:57:35 51°32.473 3°5.623 323.2 11.8 313 29
2007-07-30 09:58:35 51°32.613 3°5.395 323.7 12.1 314 29.2
2007-07-30 09:59:35 51°32.751 3°5.161 322.1 12 314 31.6
2007-07-30 10:00:35 51°32.887 3°4.932 321.4 11.6 314 33.4
2007-07-30 10:01:35 51°33.014 3°4.692 319.3 12.1 306 28.6
2007-07-30 10:02:35 51°33.14 3°4.454 318.9 11.6 312 25.7
2007-07-30 10:03:35 51°33.266 3°4.212 317.9 11.7 310 19.7
2007-07-30 10:04:35 51°33.39 3°3.978 319 11.5 312 21.6
2007-07-30 10:05:35 51°33.519 3°3.74 319.3 11.8 310 22
2007-07-30 10:06:35 51°33.644 3°3.501 318.8 11.8 309 22.9
2007-07-30 10:07:35 51°33.771 3°3.258 318.8 12 310 25.3
2007-07-30 10:08:35 51°33.897 3°3.014 319.3 12 308 31.9
2007-07-30 10:09:35 51°34.022 3°2.769 319.2 12 310 34.1
2007-07-30 10:10:35 51°34.148 3°2.524 318.2 11.7 308 32.9
2007-07-30 10:11:35 51°34.274 3°2.283 318.5 11.7 311 28.1
2007-07-30 10:12:35 51°34.401 3°2.044 319.3 11.7 310 23
2007-07-30 10:13:35 51°34.525 3°1.804 319.7 11.8 308 20.5
2007-07-30 10:14:35 51°34.649 3°1.566 319.1 11.4 307 18.6
2007-07-30 10:15:35 51°34.774 3°1.326 319.5 11.7 310 17.4
2007-07-30 10:16:35 51°34.898 3°1.083 319.8 11.7 310 19.7
2007-07-30 10:17:35 51°35.022 3°0.843 318 11.8 309 23.4
2007-07-30 10:18:35 51°35.147 3°0.599 319.3 12 309 24.5
2007-07-30 10:19:35 51°35.27 3°0.355 318.5 11.7 309 27.2
2007-07-30 10:20:35 51°35.388 3°0.098 306.2 12.3 293 29.8
2007-07-30 10:21:35 51°35.408 2°59.761 277.9 12.8 268 29.1
2007-07-30 10:22:35 51°35.375 2°59.412 264.1 13.4 258 28.9
2007-07-30 10:23:35 51°35.306 2°59.072 251.3 13.6 238 30.9
2007-07-30 10:24:35 51°35.196 2°58.754 248.5 13.3 241 31.7
2007-07-30 10:25:35 51°35.085 2°58.436 246 13.5 241 32.3
2007-07-30 10:26:35 51°34.961 2°58.132 244 13.2 235 25.7
2007-07-30 10:27:35 51°34.839 2°57.826 242.3 13.7 238 32.7
2007-07-30 10:28:35 51°34.719 2°57.522 242.3 13.6 236 29.8
2007-07-30 10:29:35 51°34.6 2°57.218 242.3 13.5 239 31
2007-07-30 10:30:35 51°34.481 2°56.909 244 13.6 237 31.7
2007-07-30 10:31:35 51°34.362 2°56.599 241.7 13.9 235 32.4
2007-07-30 10:32:35 51°34.247 2°56.289 244.5 13.3 240 32.2
2007-07-30 10:33:35 51°34.13 2°55.984 243.5 13.6 238 30.6
2007-07-30 10:34:35 51°34.014 2°55.676 243.8 13.5 234 30.7
2007-07-30 10:35:35 51°33.9 2°55.367 244.7 13.3 242 30.2
2007-07-30 10:36:35 51°33.785 2°55.059 245.4 13.3 238 29
2007-07-30 10:37:35 51°33.672 2°54.748 245.8 13.2 243 29.6
2007-07-30 10:38:35 51°33.557 2°54.44 243.4 13.4 241 27.6
2007-07-30 10:39:35 51°33.443 2°54.13 244.4 13.4 241 28.9
2007-07-30 10:40:35 51°33.328 2°53.823 242.5 13.6 239 29.4
2007-07-30 10:41:35 51°33.217 2°53.518 243.8 13 238 28.2
2007-07-30 10:42:35 51°33.106 2°53.213 244.5 12.9 241 27.3
2007-07-30 10:43:35 51°32.994 2°52.908 244.2 13.2 238 29.3
2007-07-30 10:44:35 51°32.884 2°52.601 243.8 13.4 240 28.4
2007-07-30 10:45:35 51°32.774 2°52.296 243.8 13.1 245 27.5
2007-07-30 10:46:35 51°32.663 2°51.993 244.5 13.3 241 29.4
2007-07-30 10:47:35 51°32.553 2°51.686 244.3 13.5 240 32.2
2007-07-30 10:48:35 51°32.443 2°51.383 244.8 13.3 239 32
2007-07-30 10:49:35 51°32.333 2°51.078 243.9 13.3 241 31.9
2007-07-30 10:50:35 51°32.222 2°50.777 243.1 13.1 244 30.6
2007-07-30 10:51:35 51°32.11 2°50.476 244.3 12.9 245 28.8
2007-07-30 10:52:35 51°31.998 2°50.176 243.8 13.1 238 31.4
2007-07-30 10:53:35 51°31.89 2°49.874 244.1 13.2 240 32.3
2007-07-30 10:54:35 51°31.781 2°49.572 243.5 13.2 236 29.6
2007-07-30 10:55:34 51°31.676 2°49.275 240.5 13.3 240 29.4
2007-07-30 10:56:35 51°31.566 2°48.968 242.7 13.1 241 27.9
2007-07-30 10:57:35 51°31.458 2°48.668 244.5 12.9 239 30.7
2007-07-30 10:58:35 51°31.35 2°48.37 244.6 12.9 238 31.6
2007-07-30 10:59:35 51°31.242 2°48.071 244.4 13.1 241 30.4
2007-07-30 11:00:35 51°31.092 2°47.837 207.6 12.8 197 31.4
2007-07-30 11:01:34 51°30.886 2°47.85 163.8 12.9 160 30.4
2007-07-30 11:02:34 51°30.675 2°47.96 162.2 12.9 163 30.2
2007-07-30 11:03:34 51°30.478 2°48.117 147.9 13.5 141 26.1
2007-07-30 11:04:35 51°30.29 2°48.317 148 13.2 146 23.6
2007-07-30 11:05:35 51°30.165 2°48.594 113 13.1 110 23.4
2007-07-30 11:06:35 51°30.087 2°48.924 113.1 13.8 112 25.7
2007-07-30 11:07:35 51°30.049 2°49.258 86 12.6 83 22.5
2007-07-30 11:08:35 51°30.118 2°49.574 60.8 12.6 63 21.1
2007-07-30 11:09:35 51°30.224 2°49.862 60.5 12.7 58 23
2007-07-30 11:10:34 51°30.325 2°50.152 62.4 12.8 59 24.6
2007-07-30 11:11:35 51°30.425 2°50.458 61.8 12.8 65 23.4
2007-07-30 11:12:35 51°30.523 2°50.761 62.9 12.8 62 22.8
2007-07-30 11:13:35 51°30.618 2°51.067 62.3 12.9 62 23.5
2007-07-30 11:14:35 51°30.712 2°51.374 63.3 12.9 67 24.4
2007-07-30 11:15:35 51°30.803 2°51.684 65.3 12.8 65 22.2
2007-07-30 11:16:35 51°30.894 2°51.994 63.8 12.7 64 20.7
2007-07-30 11:17:34 51°30.983 2°52.298 64.7 13 68 22.6
2007-07-30 11:18:35 51°31.079 2°52.606 61.6 12.9 59 20.5
2007-07-30 11:19:35 51°31.181 2°52.905 62 12.8 62 22.1
2007-07-30 11:20:35 51°31.283 2°53.205 61.8 13 63 21.2
2007-07-30 11:21:35 51°31.385 2°53.506 60.9 12.7 61 22.1
2007-07-30 11:22:35 51°31.487 2°53.807 60.6 13 64 22.7
2007-07-30 11:23:34 51°31.589 2°54.104 62.5 13 63 19.8
2007-07-30 11:24:35 51°31.693 2°54.413 62.1 12.9 62 22.3
2007-07-30 11:25:35 51°31.798 2°54.716 60.3 12.9 58 22.5
2007-07-30 11:26:35 51°31.896 2°55.017 63.6 12.2 66 19.2
2007-07-30 11:27:35 51°31.998 2°55.319 62.3 13 60 22.1
2007-07-30 11:28:35 51°32.076 2°55.638 77.3 13.1 78 23.4
2007-07-30 11:29:35 51°32.119 2°55.981 86.9 13.2 84 20.3
2007-07-30 11:30:35 51°32.088 2°56.33 107.4 13.5 111 21.9
2007-07-30 11:31:35 51°32.011 2°56.666 111.9 13.2 110 16.8
2007-07-30 11:32:35 51°31.935 2°57.007 108.7 13.6 111 18.3
2007-07-30 11:33:35 51°31.807 2°57.302 134 13.6 134 20.1
2007-07-30 11:34:35 51°31.677 2°57.601 126.4 13.3 123 36.2
2007-07-30 11:35:34 51°31.562 2°57.898 124.2 13.2 125 35.1
2007-07-30 11:36:35 51°31.444 2°58.211 122.8 13.5 124 31.9
2007-07-30 11:37:35 51°31.321 2°58.518 129 14.2 127 30.8
2007-07-30 11:38:35 51°31.188 2°58.808 130.7 13.4 120 30.4
2007-07-30 11:39:35 51°31.053 2°59.097 131.2 14 130 29.2
2007-07-30 11:40:35 51°30.922 2°59.391 129.9 13.6 118 29.8
2007-07-30 11:41:35 51°30.786 2°59.682 132.3 14.3 134 28.2
2007-07-30 11:42:35 51°30.66 2°59.978 129.9 13.4 127 28.2
2007-07-30 11:43:35 51°30.527 3°0.274 127.8 13.5 119 28.4
2007-07-30 11:44:35 51°30.398 3°0.568 127.4 13.4 121 29.4
2007-07-30 11:45:35 51°30.272 3°0.862 129.1 13.9 116 29.5
2007-07-30 11:46:35 51°30.144 3°1.156 130.2 13.7 127 30.4
2007-07-30 11:47:35 51°30.016 3°1.456 129.1 13.3 127 30.1
2007-07-30 11:48:35 51°29.889 3°1.748 125.2 12.6 120 29.3
2007-07-30 11:49:35 51°29.762 3°2.039 129.2 13.1 125 27.8
2007-07-30 11:50:35 51°29.634 3°2.329 129 13 126 26.1
2007-07-30 11:51:35 51°29.508 3°2.623 126.9 13.4 123 25.1
2007-07-30 11:52:35 51°29.381 3°2.909 123.6 12.8 129 24.5
2007-07-30 11:53:35 51°29.252 3°3.198 128 13.3 125 24.7
2007-07-30 11:54:35 51°29.124 3°3.484 130.5 13.7 128 25.3
2007-07-30 11:55:35 51°28.994 3°3.773 129.9 13.3 125 25.6
2007-07-30 11:56:35 51°28.818 3°3.949 176.3 13.4 164 25.2
2007-07-30 11:57:35 51°28.606 3°3.982 182.7 13.2 179 24.9
2007-07-30 11:58:35 51°28.393 3°4.001 180.8 12.4 174 23.5
2007-07-30 11:59:35 51°28.184 3°4.011 185.1 12.8 177 22
2007-07-30 12:00:35 51°27.971 3°4.021 183 11.8 175 20.3
2007-07-30 12:01:35 51°27.757 3°4.031 184.4 12.4 176 18.9
2007-07-30 12:02:35 51°27.542 3°4.042 180 13 179 17.5
2007-07-30 12:03:35 51°27.33 3°4.051 185.3 13.1 179 16.1
2007-07-30 12:04:35 51°27.12 3°4.068 180.9 12.3 175 14.9
2007-07-30 12:05:35 51°26.907 3°4.08 183.7 13.5 180 13.6
2007-07-30 12:06:35 51°26.698 3°4.096 188 11.7 177 13.1
2007-07-30 12:07:35 51°26.487 3°4.109 186.4 13.2 182 13.3
2007-07-30 12:08:35 51°26.28 3°4.125 181.8 12.5 176 13.4
2007-07-30 12:09:35 51°26.073 3°4.144 184.3 12.1 177 13.6
2007-07-30 12:10:35 51°25.864 3°4.16 183.3 13.6 177 12.6
2007-07-30 12:11:35 51°25.66 3°4.174 183.6 12 178 14.7
2007-07-30 12:12:35 51°25.451 3°4.192 184.6 12.8 177 14.5
2007-07-30 12:13:35 51°25.246 3°4.215 183.7 12.4 172 15.3
2007-07-30 12:14:35 51°25.039 3°4.232 188.3 12.6 177 16.7
2007-07-30 12:15:35 51°24.831 3°4.226 188 12.6 180 16.9
2007-07-30 12:16:35 51°24.621 3°4.226 189 12 178 17.9
2007-07-30 12:17:35 51°24.41 3°4.222 190.5 12.3 178 22
2007-07-30 12:18:35 51°24.198 3°4.221 189.9 13.2 182 21.3
2007-07-30 12:19:35 51°23.987 3°4.224 190.8 12.4 179 16.6
2007-07-30 12:20:35 51°23.779 3°4.225 190.3 12.3 180 15.4
2007-07-30 12:21:35 51°23.572 3°4.221 194.8 12 192 15.4
2007-07-30 12:22:35 51°23.405 3°4.084 223.3 11 206 14.3
2007-07-30 12:23:35 51°23.254 3°3.914 224.2 11 221 15.1
2007-07-30 12:24:35 51°23.112 3°3.732 233 10.7 228 15
2007-07-30 12:25:35 51°22.99 3°3.521 233.8 10.7 226 14.4
2007-07-30 12:26:35 51°22.871 3°3.31 236.6 10.5 232 14.2
2007-07-30 12:27:35 51°22.75 3°3.1 235.3 10.9 231 12.5
2007-07-30 12:28:35 51°22.63 3°2.884 234.5 11 230 14.1
2007-07-30 12:29:35 51°22.508 3°2.662 231.3 11.3 228 13.5
2007-07-30 12:30:35 51°22.389 3°2.439 240 10.8 234 14.2
2007-07-30 12:31:35 51°22.284 3°2.2 239.6 11.3 235 14.1
2007-07-30 12:32:35 51°22.178 3°1.963 239.5 10.9 232 14.2
2007-07-30 12:33:35 51°22.071 3°1.724 240.3 10.8 236 14.2
2007-07-30 12:34:35 51°21.963 3°1.489 238.2 10.9 231 14.2
2007-07-30 12:35:35 51°21.855 3°1.253 236.8 11.2 231 14.3
2007-07-30 12:36:35 51°21.75 3°1.016 239.5 11.1 240 14.4
2007-07-30 12:37:35 51°21.647 3°0.779 240.5 10.9 232 14
2007-07-30 12:38:35 51°21.542 3°0.543 238.1 10.9 237 14
2007-07-30 12:39:35 51°21.437 3°0.306 240.7 10.6 237 14.1
2007-07-30 12:40:35 51°21.333 3°0.067 238.3 11.1 236 14.3
2007-07-30 12:41:35 51°21.228 2°59.832 239.5 10.9 233 14.1
2007-07-30 12:42:35 51°21.124 2°59.592 240.1 10.9 235 14.3
2007-07-30 12:43:35 51°21.021 2°59.354 239.8 10.8 239 14.8
2007-07-30 12:44:35 51°20.916 2°59.115 239.5 11 237 14.4
2007-07-30 12:45:35 51°20.813 2°58.877 240.4 10.8 232 14.3
2007-07-30 12:46:35 51°20.712 2°58.637 240.7 10.6 239 14.3
2007-07-30 12:47:35 51°20.611 2°58.398 238.5 11 238 14.6
2007-07-30 12:48:35 51°20.515 2°58.157 239.4 11 247 14.5
2007-07-30 12:49:35 51°20.417 2°57.915 240.7 11.1 245 14.4
2007-07-30 12:50:35 51°20.317 2°57.674 240.9 10.6 238 14.6
2007-07-30 12:51:35 51°20.218 2°57.429 238.2 11.4 242 14.2
2007-07-30 12:52:35 51°20.116 2°57.185 238.6 11.1 230 14.1
2007-07-30 12:53:35 51°20.018 2°56.937 241.3 10.9 238 14.3
2007-07-30 12:54:35 51°19.92 2°56.688 240.1 11 237 14.5
2007-07-30 12:55:35 51°19.819 2°56.439 238.7 11.3 235 14.2
2007-07-30 12:56:35 51°19.72 2°56.188 236.8 11.6 238 14.4
2007-07-30 12:57:35 51°19.623 2°55.935 240.9 11 243 14.3
2007-07-30 12:58:35 51°19.522 2°55.684 239.5 11.4 243 14.7
2007-07-30 12:59:35 51°19.423 2°55.432 238 11.6 246 14.5
2007-07-30 13:00:35 51°19.323 2°55.182 239.2 11 237 14.8
2007-07-30 13:01:35 51°19.223 2°54.929 239.4 11.4 240 14.6
2007-07-30 13:02:35 51°19.125 2°54.673 241.3 11.3 246 14.4
2007-07-30 13:03:35 51°19.024 2°54.42 239.6 11 237 14.3
2007-07-30 13:04:35 51°18.926 2°54.165 240.8 11.1 235 14.4
2007-07-30 13:05:35 51°18.827 2°53.91 238.4 11.3 237 14.3
2007-07-30 13:06:35 51°18.727 2°53.658 239 11.3 240 14.2
2007-07-30 13:07:35 51°18.627 2°53.403 240.3 11.1 240 14.1
2007-07-30 13:08:35 51°18.527 2°53.147 238.4 11.5 243 14.2
2007-07-30 13:09:35 51°18.426 2°52.893 239.1 11.3 239 13.7
2007-07-30 13:10:35 51°18.297 2°52.677 226 11.5 216 13.4
2007-07-30 13:11:35 51°18.153 2°52.49 215.7 11.3 210 13.8
2007-07-30 13:12:35 51°17.969 2°52.421 196.8 10.5 187 13.6
2007-07-30 13:13:35 51°17.778 2°52.378 194.5 11.5 189 13.1
2007-07-30 13:14:35 51°17.589 2°52.332 195.9 11.4 188 13.1
2007-07-30 13:15:35 51°17.39 2°52.329 183.7 11.6 181 13.3
2007-07-30 13:16:35 51°17.196 2°52.392 167.6 12.3 161 13
2007-07-30 13:17:35 51°17.039 2°52.48 173.5 7.1 164 12.6
2007-07-30 13:18:35 51°16.966 2°52.484 214 3.3 211 12.3
2007-07-30 13:19:35 51°16.955 2°52.41 282.7 3.8 303 12.7
2007-07-30 13:20:35 51°17.04 2°52.376 350.6 7.2 356 13.2
2007-07-30 13:21:35 51°17.124 2°52.375 341.3 3.4 1 12.8
2007-07-30 13:22:35 51°17.166 2°52.38 327.9 2 8 13
2007-07-30 13:23:35 51°17.199 2°52.385 323 2.4 351 13.1
2007-07-30 13:24:35 51°17.242 2°52.377 321.4 1.9 353 13.1
2007-07-30 13:25:35 51°17.28 2°52.379 341.1 2.5 10 13.4
2007-07-30 13:26:35 51°17.32 2°52.418 36.4 3 45 13.1
2007-07-30 13:27:35 51°17.344 2°52.502 100 4.6 78 13.1
2007-07-30 13:28:35 51°17.274 2°52.605 162.6 9.9 149 12.7
2007-07-30 13:29:35 51°17.101 2°52.72 161.9 11.9 159 12.7
2007-07-30 13:30:35 51°16.914 2°52.841 166.5 11.7 156 11.8
2007-07-30 13:31:35 51°16.727 2°52.969 163.9 12.8 153 13.5
2007-07-30 13:32:35 51°16.541 2°53.1 165.7 11.8 156 14.4
2007-07-30 13:33:35 51°16.355 2°53.229 164.9 11.4 159 14.6
2007-07-30 13:34:35 51°16.166 2°53.355 165.6 12.2 159 14.3
2007-07-30 13:35:35 51°15.975 2°53.48 165.7 13.3 159 13.8
2007-07-30 13:36:35 51°15.784 2°53.601 166.2 12.3 157 13.7
2007-07-30 13:37:35 51°15.593 2°53.728 164.9 12 157 13.3
2007-07-30 13:38:35 51°15.402 2°53.863 163.9 13.1 157 12.6
2007-07-30 13:39:35 51°15.215 2°53.996 162.7 11.6 155 12.2
2007-07-30 13:40:35 51°15.03 2°54.134 159 11.9 151 11.2
2007-07-30 13:41:35 51°14.858 2°54.32 157.5 12.5 146 12.3
2007-07-30 13:42:35 51°14.695 2°54.535 150.8 12.3 143 12.8
2007-07-30 13:43:35 51°14.537 2°54.763 144.5 12.6 135 12.6
2007-07-30 13:44:35 51°14.4 2°55.01 136.3 12.4 128 13.5
2007-07-30 13:45:35 51°14.273 2°55.248 132.8 10.5 134 13.2
2007-07-30 13:46:37 51°14.169 2°55.376 153.8 6.4 153 13.4
2007-07-30 13:47:38 51°14.072 2°55.449 158.3 6.8 154 13
2007-07-30 13:48:38 51°13.962 2°55.531 157.5 7.5 155 13.5
2007-07-30 13:49:39 51°13.844 2°55.619 156 7.5 154 13.4
2007-07-30 13:50:39 51°13.749 2°55.72 135.8 6.3 136 -999
2007-07-30 13:51:39 51°13.687 2°55.841 128.8 5.8 127 -999
2007-07-30 13:52:39 51°13.634 2°55.959 126.7 4.9 125 -999
2007-07-30 13:53:39 51°13.605 2°56.059 109.9 3.4 108 -999
2007-07-30 13:54:39 51°13.596 2°56.091 111.4 0.3 145 -999
2007-07-30 13:55:39 51°13.596 2°56.093 104.4 0.2 248 -999